createdAt,value
2019-05-29T00:01:29.026Z,1.00
2019-05-29T00:06:33.968Z,0.95
2019-05-29T00:11:39.409Z,1.17
2019-05-29T00:16:45.030Z,0.98
2019-05-29T00:21:49.880Z,1.10
2019-05-29T00:26:54.675Z,1.20
2019-05-29T00:31:59.480Z,0.90
2019-05-29T00:37:06.371Z,1.10
2019-05-29T00:42:13.183Z,1.42
2019-05-29T00:47:18.419Z,1.10
2019-05-29T00:52:23.204Z,1.00
2019-05-29T00:57:28.055Z,0.80
2019-05-29T01:02:33.013Z,1.02
2019-05-29T01:07:38.012Z,1.20
2019-05-29T01:12:42.799Z,1.20
2019-05-29T01:17:47.815Z,1.00
2019-05-29T01:22:52.712Z,0.88
2019-05-29T01:27:57.596Z,0.90
2019-05-29T01:33:02.364Z,1.10
2019-05-29T01:38:07.203Z,1.30
2019-05-29T01:43:12.132Z,1.25
2019-05-29T01:48:17.438Z,1.00
2019-05-29T01:53:23.803Z,1.40
2019-05-29T01:58:28.852Z,0.90
2019-05-29T02:03:33.721Z,0.90
2019-05-29T02:08:46.850Z,1.25
2019-05-29T02:13:51.687Z,1.07
2019-05-29T02:18:56.646Z,1.05
2019-05-29T02:24:01.588Z,1.02
2019-05-29T02:29:06.524Z,1.00
2019-05-29T02:34:11.268Z,1.30
2019-05-29T02:39:16.173Z,1.12
2019-05-29T02:44:21.301Z,1.00
2019-05-29T02:49:27.920Z,1.15
2019-05-29T02:54:32.954Z,0.90
2019-05-29T02:59:38.007Z,1.10
2019-05-29T03:04:47.181Z,1.07
2019-05-29T03:09:52.413Z,1.02
2019-05-29T03:14:57.496Z,1.10
2019-05-29T03:20:02.553Z,1.30
2019-05-29T03:25:07.838Z,1.07
2019-05-29T03:30:12.830Z,1.30
2019-05-29T03:35:17.813Z,1.30
2019-05-29T03:40:22.694Z,1.40
2019-05-29T03:45:28.926Z,1.45
2019-05-29T03:50:34.925Z,1.20
2019-05-29T03:55:42.765Z,1.20
2019-05-29T04:00:48.974Z,1.25
2019-05-29T04:05:54.356Z,1.45
2019-05-29T04:10:59.351Z,1.40
2019-05-29T04:16:09.055Z,1.00
2019-05-29T04:21:16.846Z,1.30
2019-05-29T04:26:24.926Z,1.40
2019-05-29T04:31:30.035Z,1.12
2019-05-29T04:36:38.922Z,1.17
2019-05-29T04:41:49.234Z,1.40
2019-05-29T04:47:10.237Z,1.20
2019-05-29T04:52:02.003Z,1.20
2019-05-29T04:57:06.950Z,1.30
2019-05-29T05:02:11.983Z,1.22
2019-05-29T05:07:16.813Z,1.20
2019-05-29T05:12:21.896Z,1.40
2019-05-29T05:17:29.647Z,1.15
2019-05-29T05:22:34.676Z,1.30
2019-05-29T05:27:40.692Z,1.10
2019-05-29T05:32:47.041Z,1.35
2019-05-29T05:37:52.459Z,1.12
2019-05-29T05:42:57.311Z,1.05
2019-05-29T05:48:04.452Z,1.17
2019-05-29T05:53:09.489Z,1.08
2019-05-29T05:58:14.463Z,0.90
2019-05-29T06:03:19.363Z,1.00
2019-05-29T06:08:43.664Z,1.10
2019-05-29T06:13:55.323Z,1.00
2019-05-29T06:19:00.242Z,1.10
2019-05-29T06:24:05.724Z,1.20
2019-05-29T06:29:10.763Z,1.40
2019-05-29T06:34:17.091Z,1.20
2019-05-29T06:39:23.354Z,1.00
2019-05-29T06:44:29.597Z,1.05
2019-05-29T06:49:35.886Z,1.00
2019-05-29T06:54:41.926Z,1.00
2019-05-29T06:59:48.832Z,0.90
2019-05-29T07:04:54.038Z,0.72
2019-05-29T07:09:59.034Z,1.00
2019-05-29T07:15:04.182Z,0.90
2019-05-29T07:20:09.242Z,0.88
2019-05-29T07:25:14.202Z,1.00
2019-05-29T07:30:20.011Z,0.85
2019-05-29T07:35:24.971Z,0.90
2019-05-29T07:40:29.941Z,0.80
2019-05-29T07:45:42.165Z,0.90
2019-05-29T07:51:06.600Z,0.85
2019-05-29T07:56:02.022Z,1.02
2019-05-29T08:01:13.251Z,0.93
2019-05-29T08:06:13.476Z,0.80
2019-05-29T08:11:18.229Z,1.10
2019-05-29T08:16:23.329Z,1.02
2019-05-29T08:21:28.343Z,0.90
2019-05-29T08:26:36.107Z,0.80
2019-05-29T08:31:50.989Z,1.10
2019-05-29T08:37:06.637Z,1.05
2019-05-29T08:42:21.993Z,1.00
2019-05-29T08:47:10.836Z,1.30
2019-05-29T08:52:15.672Z,0.90
2019-05-29T08:57:25.857Z,1.15
2019-05-29T09:02:38.898Z,1.00
2019-05-29T09:07:46.399Z,0.90
2019-05-29T09:13:03.414Z,0.88
2019-05-29T09:17:57.605Z,0.85
2019-05-29T09:23:02.453Z,1.12
2019-05-29T09:28:16.496Z,1.00
2019-05-29T09:33:23.425Z,0.93
2019-05-29T09:38:29.135Z,0.95
2019-05-29T09:43:34.042Z,0.95
2019-05-29T09:48:49.148Z,0.82
2019-05-29T09:53:55.737Z,1.05
2019-05-29T09:59:01.828Z,1.10
2019-05-29T10:04:07.566Z,0.98
2019-05-29T10:09:12.662Z,0.90
2019-05-29T10:14:17.466Z,0.88
2019-05-29T10:19:22.320Z,1.00
2019-05-29T10:24:27.461Z,0.90
2019-05-29T10:29:32.337Z,1.00
2019-05-29T10:34:37.250Z,0.95
2019-05-29T10:39:44.753Z,1.00
2019-05-29T10:44:49.831Z,0.75
2019-05-29T10:49:54.881Z,1.32
2019-05-29T10:55:02.423Z,0.90
2019-05-29T11:00:13.655Z,1.10
2019-05-29T11:05:19.313Z,0.80
2019-05-29T11:10:24.388Z,0.90
2019-05-29T11:15:29.204Z,0.82
2019-05-29T11:20:39.765Z,1.05
2019-05-29T11:25:47.845Z,0.80
2019-05-29T11:30:55.508Z,0.78
2019-05-29T11:36:10.029Z,1.07
2019-05-29T11:41:25.295Z,1.15
2019-05-29T11:46:14.888Z,1.10
2019-05-29T11:51:19.935Z,1.00
2019-05-29T11:56:31.888Z,0.90
2019-05-29T12:01:49.682Z,1.00
2019-05-29T12:06:43.335Z,0.80
2019-05-29T12:11:48.061Z,0.90
2019-05-29T12:16:54.131Z,0.98
2019-05-29T12:22:00.453Z,0.80
2019-05-29T12:27:05.628Z,0.95
2019-05-29T12:32:18.431Z,1.20
2019-05-29T12:37:23.310Z,1.00
2019-05-29T12:42:34.084Z,1.05
2019-05-29T12:47:47.135Z,0.90
2019-05-29T12:52:53.464Z,1.00
2019-05-29T12:57:58.407Z,1.00
2019-05-29T13:03:05.076Z,1.02
2019-05-29T13:08:10.311Z,0.90
2019-05-29T13:13:15.383Z,1.25
2019-05-29T13:18:20.487Z,1.10
2019-05-29T13:23:25.486Z,1.10
2019-05-29T13:28:32.423Z,1.20
2019-05-29T13:33:37.253Z,1.00
2019-05-29T13:38:42.177Z,1.00
2019-05-29T13:43:47.055Z,1.30
2019-05-29T13:48:53.567Z,0.90
2019-05-29T13:54:03.572Z,1.10
2019-05-29T13:59:09.063Z,0.80
2019-05-29T14:04:15.025Z,1.32
2019-05-29T14:09:20.033Z,0.90
2019-05-29T14:14:25.214Z,0.90
2019-05-29T14:19:30.329Z,1.20
2019-05-29T14:24:35.322Z,1.00
2019-05-29T14:29:40.695Z,1.00
2019-05-29T14:34:45.681Z,0.75
2019-05-29T14:39:50.639Z,1.10
2019-05-29T14:44:55.853Z,1.07
2019-05-29T14:50:02.394Z,0.95
2019-05-29T14:55:09.000Z,0.90
2019-05-29T15:00:24.945Z,1.03
2019-05-29T15:05:22.138Z,1.10
2019-05-29T15:10:27.990Z,0.82
2019-05-29T15:15:33.181Z,0.82
2019-05-29T15:20:38.086Z,0.98
2019-05-29T15:25:43.010Z,1.02
2019-05-29T15:30:47.923Z,0.93
2019-05-29T15:35:53.517Z,0.70
2019-05-29T15:40:58.404Z,1.10
2019-05-29T15:46:03.267Z,0.80
2019-05-29T15:51:08.822Z,1.00
2019-05-29T15:56:21.542Z,0.97
2019-05-29T16:01:20.376Z,0.90
2019-05-29T16:06:26.504Z,0.90
2019-05-29T16:11:37.327Z,0.78
2019-05-29T16:16:42.189Z,1.00
2019-05-29T16:21:47.110Z,0.75
2019-05-29T16:27:06.134Z,0.82
2019-05-29T16:31:59.327Z,0.90
2019-05-29T16:37:04.803Z,0.93
2019-05-29T16:42:11.957Z,0.80
2019-05-29T16:47:16.723Z,0.80
2019-05-29T16:52:22.970Z,0.90
2019-05-29T16:57:31.543Z,0.70
2019-05-29T17:02:36.425Z,0.90
2019-05-29T17:07:41.449Z,0.90
2019-05-29T17:12:46.675Z,0.80
2019-05-29T17:17:51.648Z,0.90
2019-05-29T17:22:56.562Z,1.00
2019-05-29T17:28:01.657Z,0.80
2019-05-29T17:33:07.067Z,1.07
2019-05-29T17:38:12.436Z,1.00
2019-05-29T17:43:21.475Z,0.85
2019-05-29T17:48:25.918Z,0.93
2019-05-29T17:53:33.344Z,0.90
2019-05-29T17:58:38.272Z,0.95
2019-05-29T18:03:43.297Z,0.80
2019-05-29T18:08:48.209Z,0.72
2019-05-29T18:13:53.290Z,0.72
2019-05-29T18:18:58.866Z,1.00
2019-05-29T18:24:04.753Z,0.78
2019-05-29T18:29:09.776Z,0.75
2019-05-29T18:34:14.526Z,0.87
2019-05-29T18:39:22.171Z,0.90
2019-05-29T18:44:27.495Z,1.05
2019-05-29T18:49:33.543Z,1.00
2019-05-29T18:54:44.225Z,0.82
2019-05-29T18:59:49.278Z,0.82
2019-05-29T19:04:54.065Z,1.00
2019-05-29T19:09:58.968Z,0.85
2019-05-29T19:15:03.887Z,1.00
2019-05-29T19:20:09.541Z,1.20
2019-05-29T19:25:14.978Z,0.90
2019-05-29T19:30:22.933Z,1.00
2019-05-29T19:35:29.516Z,1.17
2019-05-29T19:40:34.669Z,0.80
2019-05-29T19:45:39.870Z,1.05
2019-05-29T19:50:45.111Z,1.00
2019-05-29T19:55:50.287Z,1.30
2019-05-29T20:00:55.589Z,1.57
2019-05-29T20:06:00.425Z,1.20
2019-05-29T20:11:06.654Z,1.20
2019-05-29T20:16:11.503Z,1.40
2019-05-29T20:21:16.506Z,1.30
2019-05-29T20:26:21.259Z,1.10
2019-05-29T20:31:32.377Z,1.45
2019-05-29T20:36:38.800Z,3.47
2019-05-29T20:41:45.545Z,3.40
2019-05-29T20:46:50.291Z,3.27
2019-05-29T20:51:55.776Z,1.95
2019-05-29T20:57:06.930Z,2.20
2019-05-29T21:02:12.202Z,2.60
2019-05-29T21:07:17.074Z,1.92
2019-05-29T21:12:22.343Z,2.07
2019-05-29T21:17:27.244Z,1.70
2019-05-29T21:22:32.216Z,2.17
2019-05-29T21:27:37.551Z,2.25
2019-05-29T21:32:44.017Z,2.42
2019-05-29T21:37:58.056Z,2.55
2019-05-29T21:43:03.663Z,2.15
2019-05-29T21:48:14.246Z,2.10
2019-05-29T21:53:20.163Z,2.27
2019-05-29T21:58:24.866Z,2.40
2019-05-29T22:03:29.898Z,2.70
2019-05-29T22:08:34.827Z,2.37
2019-05-29T22:13:40.698Z,2.33
2019-05-29T22:18:47.051Z,2.02
2019-05-29T22:23:53.077Z,2.20
2019-05-29T22:29:14.317Z,2.12
2019-05-29T22:34:04.717Z,2.60
2019-05-29T22:39:09.794Z,2.30
2019-05-29T22:44:14.595Z,2.40
2019-05-29T22:49:19.458Z,2.17
2019-05-29T22:54:24.250Z,2.60
2019-05-29T22:59:32.171Z,2.30
2019-05-29T23:04:36.952Z,2.47
2019-05-29T23:09:42.248Z,2.60
2019-05-29T23:14:47.413Z,2.70
2019-05-29T23:19:52.457Z,2.55
2019-05-29T23:24:57.336Z,2.72
2019-05-29T23:30:03.302Z,2.95
2019-05-29T23:35:08.770Z,2.83
2019-05-29T23:40:15.484Z,2.70
2019-05-29T23:45:20.488Z,3.10
2019-05-29T23:50:31.527Z,2.63
2019-05-29T23:55:36.284Z,2.83
